Time;durP1;ratioP1;P1;durP2;ratioP2;P2;SDS_P1;SDS_P2;PMS_P1;PMS_P2;Temp;Humidity;BMP_temperature;BMP_pressure;BME280_temperature;BME280_humidity;BME280_pressure;Samples;Min_cycle;Max_cycle;Signal;HPM_P1;HPM_P2
2023/09/20 00:02:02;;;;;;;5.90;1.88;;;;;;;;;;5065970;28;39903;-71
2023/09/20 00:04:30;;;;;;;3.05;1.40;;;;;;;;;;5066109;28;41382;-71
2023/09/20 00:06:59;;;;;;;4.43;1.42;;;;;;;;;;5065160;28;40158;-70
2023/09/20 00:09:30;;;;;;;3.08;1.20;;;;;;;;;;5058132;28;41728;-72
2023/09/20 00:11:58;;;;;;;4.07;1.30;;;;;;;;;;5049362;28;42455;-70
2023/09/20 00:14:26;;;;;;;3.13;1.35;;;;;;;;;;5063994;28;41127;-71
2023/09/20 00:16:54;;;;;;;4.20;1.45;;;;;;;;;;5063938;28;41794;-71
2023/09/20 00:19:22;;;;;;;3.58;1.20;;;;;;;;;;5063127;28;40442;-71
2023/09/20 00:21:50;;;;;;;4.05;1.40;;;;;;;;;;5064274;28;40770;-71
2023/09/20 00:24:19;;;;;;;2.97;1.23;;;;;;;;;;5064537;28;43108;-70
2023/09/20 00:26:47;;;;;;;2.97;1.50;;;;;;;;;;5066494;28;43309;-70
2023/09/20 00:29:15;;;;;;;3.85;1.33;;;;;;;;;;5063107;28;40502;-71
2023/09/20 00:31:43;;;;;;;3.67;1.45;;;;;;;;;;5062958;28;42377;-70
2023/09/20 00:34:13;;;;;;;2.92;1.20;;;;;;;;;;5064663;28;41304;-71
2023/09/20 00:36:41;;;;;;;4.50;1.25;;;;;;;;;;5062490;28;40686;-71
2023/09/20 00:39:09;;;;;;;4.03;1.48;;;;;;;;;;5064978;28;41527;-71
2023/09/20 00:41:39;;;;;;;4.03;1.77;;;;;;;;;;5065939;28;41871;-69
2023/09/20 00:44:07;;;;;;;5.57;1.48;;;;;;;;;;5066001;28;41619;-69
2023/09/20 00:46:38;;;;;;;2.53;1.30;;;;;;;;;;5065880;28;42743;-70
2023/09/20 00:49:06;;;;;;;3.45;1.13;;;;;;;;;;5066662;28;40434;-69
2023/09/20 00:51:34;;;;;;;3.17;1.38;;;;;;;;;;5065519;28;43233;-69
2023/09/20 00:54:04;;;;;;;2.17;1.27;;;;;;;;;;5065892;28;40260;-69
2023/09/20 00:56:32;;;;;;;3.03;1.45;;;;;;;;;;5064590;28;41272;-69
2023/09/20 00:59:06;;;;;;;2.70;1.25;;;;;;;;;;5065381;28;42175;-69
2023/09/20 01:01:35;;;;;;;2.72;1.17;;;;;;;;;;5064604;28;39153;-69
2023/09/20 01:04:03;;;;;;;2.72;1.00;;;;;;;;;;5064804;28;41849;-69
2023/09/20 01:06:33;;;;;;;2.40;1.02;;;;;;;;;;5065108;28;41568;-69
2023/09/20 01:09:01;;;;;;;1.63;0.93;;;;;;;;;;5058073;28;41364;-69
2023/09/20 01:11:29;;;;;;;2.42;1.20;;;;;;;;;;5063826;28;42817;-69
2023/09/20 01:13:59;;;;;;;3.72;1.30;;;;;;;;;;5068862;28;40431;-69
2023/09/20 01:16:28;;;;;;;2.85;1.48;;;;;;;;;;5066664;28;40673;-68
2023/09/20 01:18:56;;;;;;;3.08;1.60;;;;;;;;;;5068281;28;42182;-68
2023/09/20 01:21:25;;;;;;;3.45;1.05;;;;;;;;;;5066731;28;40406;-69
2023/09/20 01:23:54;;;;;;;5.15;1.55;;;;;;;;;;5064945;28;40647;-69
2023/09/20 01:26:22;;;;;;;1.58;1.00;;;;;;;;;;5067912;28;41866;-69
2023/09/20 01:28:50;;;;;;;2.95;1.35;;;;;;;;;;5066637;28;40705;-69
2023/09/20 01:31:18;;;;;;;2.05;1.00;;;;;;;;;;5066923;28;40134;-69
2023/09/20 01:33:47;;;;;;;2.50;1.25;;;;;;;;;;5067834;28;20383;-71
2023/09/20 01:36:16;;;;;;;2.60;1.25;;;;;;;;;;5069131;28;42584;-69
2023/09/20 01:38:44;;;;;;;3.80;1.08;;;;;;;;;;5067797;28;41591;-69
2023/09/20 01:41:14;;;;;;;1.98;1.10;;;;;;;;;;5068533;28;41328;-69
2023/09/20 01:43:43;;;;;;;3.42;1.45;;;;;;;;;;5067259;28;38220;-69
2023/09/20 01:46:11;;;;;;;3.00;1.30;;;;;;;;;;5068159;28;42788;-70
2023/09/20 01:48:40;;;;;;;2.55;1.20;;;;;;;;;;5068259;28;40534;-69
2023/09/20 01:51:09;;;;;;;2.17;1.30;;;;;;;;;;5067735;28;40145;-69
2023/09/20 01:53:37;;;;;;;2.70;0.90;;;;;;;;;;5066907;28;41095;-70
2023/09/20 01:56:06;;;;;;;2.30;1.10;;;;;;;;;;5067097;28;41353;-69
2023/09/20 01:58:35;;;;;;;1.92;1.13;;;;;;;;;;5066556;28;40608;-69
2023/09/20 02:01:03;;;;;;;1.95;1.15;;;;;;;;;;5066626;28;40043;-69
2023/09/20 02:03:32;;;;;;;2.88;1.52;;;;;;;;;;5068237;28;40859;-69
2023/09/20 02:06:00;;;;;;;1.60;1.00;;;;;;;;;;5067535;28;41802;-70
2023/09/20 02:08:28;;;;;;;1.60;1.13;;;;;;;;;;5060044;28;40049;-68
2023/09/20 02:10:56;;;;;;;1.92;1.17;;;;;;;;;;5066982;28;40903;-69
2023/09/20 02:13:24;;;;;;;1.70;1.13;;;;;;;;;;5067022;28;43226;-70
2023/09/20 02:15:54;;;;;;;2.38;0.90;;;;;;;;;;5066565;28;39511;-69
2023/09/20 02:18:22;;;;;;;3.08;1.15;;;;;;;;;;5066701;28;42417;-70
2023/09/20 02:20:50;;;;;;;1.73;1.00;;;;;;;;;;5064951;28;40368;-69
2023/09/20 02:23:19;;;;;;;4.28;1.10;;;;;;;;;;5062502;28;42601;-69
2023/09/20 02:25:48;;;;;;;2.65;1.35;;;;;;;;;;5066893;28;42010;-69
2023/09/20 02:28:16;;;;;;;4.03;1.33;;;;;;;;;;5064394;28;39224;-69
2023/09/20 02:30:45;;;;;;;1.65;1.17;;;;;;;;;;5066596;28;42717;-69
2023/09/20 02:33:15;;;;;;;2.00;1.13;;;;;;;;;;5066593;28;40497;-69
2023/09/20 02:35:45;;;;;;;1.17;0.90;;;;;;;;;;5065061;28;39828;-69
2023/09/20 02:38:13;;;;;;;1.90;1.00;;;;;;;;;;5068264;28;41745;-69
2023/09/20 02:40:41;;;;;;;2.65;1.30;;;;;;;;;;5066459;28;39616;-69
2023/09/20 02:43:12;;;;;;;1.95;1.13;;;;;;;;;;5067819;28;41709;-70
2023/09/20 02:45:40;;;;;;;1.90;1.00;;;;;;;;;;5065760;28;41977;-70
2023/09/20 02:48:09;;;;;;;2.35;1.15;;;;;;;;;;5066486;28;39756;-69
2023/09/20 02:50:41;;;;;;;1.77;0.80;;;;;;;;;;5065525;28;40581;-70
2023/09/20 02:53:09;;;;;;;2.33;1.13;;;;;;;;;;5067416;28;42252;-69
2023/09/20 02:55:38;;;;;;;2.70;1.00;;;;;;;;;;5066805;28;40408;-70
2023/09/20 02:58:07;;;;;;;2.38;1.02;;;;;;;;;;5067045;28;42179;-69
2023/09/20 03:00:38;;;;;;;1.48;0.88;;;;;;;;;;5067422;28;42197;-69
2023/09/20 03:03:07;;;;;;;1.17;0.88;;;;;;;;;;5058314;28;40165;-69
2023/09/20 03:05:36;;;;;;;2.28;0.93;;;;;;;;;;5066008;28;42834;-70
2023/09/20 03:08:11;;;;;;;1.08;0.73;;;;;;;;;;5066193;28;38980;-69
2023/09/20 03:10:41;;;;;;;2.10;1.20;;;;;;;;;;5064979;28;41222;-70
2023/09/20 03:13:16;;;;;;;2.20;1.10;;;;;;;;;;5066728;28;42378;-71
2023/09/20 03:15:45;;;;;;;2.97;1.10;;;;;;;;;;5065923;28;40021;-70
2023/09/20 03:18:15;;;;;;;3.88;1.10;;;;;;;;;;5064958;28;40524;-70
2023/09/20 03:20:49;;;;;;;1.55;0.95;;;;;;;;;;5051671;28;40458;-70
2023/09/20 03:23:20;;;;;;;1.23;0.90;;;;;;;;;;5066271;28;40093;-69
2023/09/20 03:25:48;;;;;;;2.35;1.10;;;;;;;;;;5064863;28;42135;-69
2023/09/20 03:28:27;;;;;;;1.20;0.80;;;;;;;;;;5065900;28;40012;-69
2023/09/20 03:30:58;;;;;;;3.05;1.20;;;;;;;;;;5067646;28;42374;-69
2023/09/20 03:33:27;;;;;;;2.38;1.05;;;;;;;;;;5065104;28;40496;-69
2023/09/20 03:35:56;;;;;;;2.03;1.17;;;;;;;;;;5065227;28;38994;-69
2023/09/20 03:38:27;;;;;;;2.10;1.17;;;;;;;;;;5065537;28;41021;-69
2023/09/20 03:40:56;;;;;;;1.67;1.02;;;;;;;;;;5064783;28;41681;-69
2023/09/20 03:43:27;;;;;;;1.05;0.80;;;;;;;;;;5066553;28;38873;-69
2023/09/20 03:45:55;;;;;;;2.40;1.17;;;;;;;;;;5065101;28;42190;-69
2023/09/20 03:48:23;;;;;;;2.08;0.95;;;;;;;;;;5065431;28;39865;-69
2023/09/20 03:50:51;;;;;;;2.55;1.20;;;;;;;;;;5066045;28;40610;-69
2023/09/20 03:53:19;;;;;;;1.40;0.90;;;;;;;;;;5064474;28;40867;-69
2023/09/20 03:55:52;;;;;;;2.22;0.90;;;;;;;;;;5065895;28;39145;-69
2023/09/20 03:58:22;;;;;;;2.55;1.20;;;;;;;;;;5065331;28;40133;-70
2023/09/20 04:00:51;;;;;;;1.52;0.80;;;;;;;;;;5064447;28;41625;-69
2023/09/20 04:03:19;;;;;;;1.33;0.80;;;;;;;;;;5066934;28;42348;-69
2023/09/20 04:05:48;;;;;;;1.73;0.95;;;;;;;;;;5065308;28;41217;-69
2023/09/20 04:08:19;;;;;;;1.75;0.80;;;;;;;;;;5062623;28;41325;-69
2023/09/20 04:10:47;;;;;;;1.58;0.80;;;;;;;;;;5065072;28;40515;-69
2023/09/20 04:13:16;;;;;;;2.70;1.00;;;;;;;;;;5065057;28;42281;-69
2023/09/20 04:15:45;;;;;;;1.27;0.82;;;;;;;;;;5065579;28;41462;-69
2023/09/20 04:18:15;;;;;;;1.52;0.63;;;;;;;;;;5065015;28;41283;-69
2023/09/20 04:20:45;;;;;;;1.92;0.95;;;;;;;;;;5064839;28;44289;-69
2023/09/20 04:23:14;;;;;;;1.15;0.80;;;;;;;;;;5063349;28;40510;-70
2023/09/20 04:25:43;;;;;;;1.52;0.77;;;;;;;;;;5064863;28;41239;-69
2023/09/20 04:28:11;;;;;;;3.38;1.10;;;;;;;;;;5063875;28;41043;-69
2023/09/20 04:30:41;;;;;;;2.38;0.75;;;;;;;;;;5063040;28;40179;-69
2023/09/20 04:33:13;;;;;;;2.20;0.95;;;;;;;;;;5065210;28;41000;-69
2023/09/20 04:35:44;;;;;;;3.30;0.93;;;;;;;;;;5064062;28;39876;-69
2023/09/20 04:38:17;;;;;;;2.10;1.00;;;;;;;;;;5064961;28;40656;-69
2023/09/20 04:40:45;;;;;;;1.55;0.95;;;;;;;;;;5064735;28;42164;-69
2023/09/20 04:43:14;;;;;;;1.92;0.82;;;;;;;;;;5066085;28;41219;-69
2023/09/20 04:45:45;;;;;;;2.75;0.95;;;;;;;;;;5065208;28;41839;-69
2023/09/20 04:48:13;;;;;;;2.67;1.13;;;;;;;;;;5066783;28;41681;-69
2023/09/20 04:50:41;;;;;;;1.92;1.02;;;;;;;;;;5067719;28;40234;-69
2023/09/20 04:53:09;;;;;;;1.30;0.90;;;;;;;;;;5070015;28;42201;-69
2023/09/20 04:55:38;;;;;;;1.95;1.08;;;;;;;;;;5067945;28;39193;-70
2023/09/20 04:58:06;;;;;;;3.78;1.63;;;;;;;;;;5068842;28;42626;-69
2023/09/20 05:00:37;;;;;;;1.67;1.00;;;;;;;;;;5055749;28;41597;-69
2023/09/20 05:03:10;;;;;;;1.58;1.10;;;;;;;;;;5064293;28;40109;-69
2023/09/20 05:05:38;;;;;;;1.65;0.82;;;;;;;;;;5069546;28;42170;-70
2023/09/20 05:08:08;;;;;;;2.85;1.33;;;;;;;;;;5069030;28;42776;-69
2023/09/20 05:10:37;;;;;;;2.08;0.98;;;;;;;;;;5067252;28;39007;-69
2023/09/20 05:13:07;;;;;;;1.45;0.90;;;;;;;;;;5068690;28;40514;-69
2023/09/20 05:15:35;;;;;;;2.90;1.80;;;;;;;;;;5067829;28;40318;-69
2023/09/20 05:18:05;;;;;;;1.80;0.95;;;;;;;;;;5058303;28;39672;-69
2023/09/20 05:20:36;;;;;;;1.95;1.10;;;;;;;;;;5062783;28;40537;-69
2023/09/20 05:23:05;;;;;;;2.38;1.33;;;;;;;;;;5067706;28;39256;-69
2023/09/20 05:25:33;;;;;;;2.15;0.80;;;;;;;;;;5068259;28;41474;-69
2023/09/20 05:28:02;;;;;;;2.70;1.30;;;;;;;;;;5067393;28;40855;-70
2023/09/20 05:30:30;;;;;;;1.50;0.90;;;;;;;;;;5064622;28;40474;-70
2023/09/20 05:32:58;;;;;;;2.65;1.50;;;;;;;;;;5061558;28;41631;-70
2023/09/20 05:35:27;;;;;;;1.38;0.95;;;;;;;;;;5068483;28;40329;-69
2023/09/20 05:37:56;;;;;;;2.45;0.90;;;;;;;;;;5069143;28;43189;-69
2023/09/20 05:40:28;;;;;;;2.38;1.20;;;;;;;;;;5067620;28;41968;-70
2023/09/20 05:42:56;;;;;;;2.15;0.80;;;;;;;;;;5066239;28;41571;-70
2023/09/20 05:45:26;;;;;;;2.20;1.00;;;;;;;;;;5068316;28;41522;-69
2023/09/20 05:47:54;;;;;;;3.33;1.40;;;;;;;;;;5068051;28;42667;-70
2023/09/20 05:50:31;;;;;;;1.08;0.75;;;;;;;;;;5068354;28;41523;-69
2023/09/20 05:53:01;;;;;;;1.35;0.98;;;;;;;;;;5065364;28;41656;-70
2023/09/20 05:55:33;;;;;;;1.40;0.85;;;;;;;;;;5067111;28;41256;-70
2023/09/20 05:58:02;;;;;;;1.13;0.80;;;;;;;;;;5067193;28;41404;-69
2023/09/20 06:00:30;;;;;;;2.88;1.13;;;;;;;;;;5067684;28;42822;-69
2023/09/20 06:02:58;;;;;;;2.47;0.95;;;;;;;;;;5069389;28;40607;-70
2023/09/20 06:05:27;;;;;;;1.73;1.27;;;;;;;;;;5067982;28;42922;-70
2023/09/20 06:07:55;;;;;;;1.70;0.90;;;;;;;;;;5061673;27;42562;-69
2023/09/20 06:10:25;;;;;;;1.55;0.70;;;;;;;;;;5068200;28;40280;-70
2023/09/20 06:12:53;;;;;;;1.67;1.00;;;;;;;;;;5068921;28;42341;-70
2023/09/20 06:15:21;;;;;;;2.15;1.25;;;;;;;;;;5068278;28;42299;-70
2023/09/20 06:17:49;;;;;;;1.30;0.90;;;;;;;;;;5067083;28;40866;-69
2023/09/20 06:20:20;;;;;;;2.17;1.15;;;;;;;;;;5066349;28;42739;-70
2023/09/20 06:22:48;;;;;;;1.67;1.17;;;;;;;;;;5067625;28;41454;-70
2023/09/20 06:25:19;;;;;;;2.05;1.25;;;;;;;;;;5067853;28;41578;-70
2023/09/20 06:27:50;;;;;;;0.82;0.70;;;;;;;;;;5066473;28;42179;-70
2023/09/20 06:30:20;;;;;;;2.50;1.48;;;;;;;;;;5064744;28;39706;-70
2023/09/20 06:32:48;;;;;;;1.75;1.10;;;;;;;;;;5060937;28;41527;-70
2023/09/20 06:35:19;;;;;;;2.67;1.10;;;;;;;;;;5063496;28;42236;-70
2023/09/20 06:37:48;;;;;;;1.45;0.98;;;;;;;;;;5059174;28;41118;-70
2023/09/20 06:40:22;;;;;;;2.08;1.05;;;;;;;;;;5060446;28;41772;-70
2023/09/20 06:42:51;;;;;;;2.20;1.08;;;;;;;;;;5064745;28;41036;-70
2023/09/20 06:45:20;;;;;;;3.35;1.70;;;;;;;;;;5057144;28;41417;-69
2023/09/20 06:47:48;;;;;;;3.03;1.55;;;;;;;;;;5061876;28;41903;-69
2023/09/20 06:50:17;;;;;;;4.22;1.70;;;;;;;;;;5068087;28;41201;-70
2023/09/20 06:52:45;;;;;;;2.83;1.60;;;;;;;;;;5067428;28;42693;-70
2023/09/20 06:55:16;;;;;;;2.60;1.58;;;;;;;;;;5067982;28;42215;-69
2023/09/20 06:57:44;;;;;;;2.28;1.20;;;;;;;;;;5067776;28;41677;-70
2023/09/20 07:00:21;;;;;;;2.13;1.23;;;;;;;;;;5067628;28;42286;-69
2023/09/20 07:02:53;;;;;;;2.80;1.70;;;;;;;;;;5066601;28;40049;-70
2023/09/20 07:05:24;;;;;;;3.28;1.88;;;;;;;;;;5067429;28;41587;-70
2023/09/20 07:07:53;;;;;;;5.75;1.88;;;;;;;;;;5054729;28;42624;-69
2023/09/20 07:10:22;;;;;;;2.67;1.40;;;;;;;;;;5060295;28;38991;-69
2023/09/20 07:12:50;;;;;;;7.68;1.40;;;;;;;;;;5067566;28;42546;-68
2023/09/20 07:15:20;;;;;;;4.38;1.13;;;;;;;;;;5065749;28;41013;-69
2023/09/20 07:17:58;;;;;;;3.28;1.63;;;;;;;;;;5054820;28;40392;-69
2023/09/20 07:20:26;;;;;;;3.33;1.45;;;;;;;;;;5063519;28;41960;-68
2023/09/20 07:22:54;;;;;;;4.28;1.50;;;;;;;;;;5067884;28;41872;-69
2023/09/20 07:25:23;;;;;;;5.88;1.70;;;;;;;;;;5067361;28;40172;-69
2023/09/20 07:27:51;;;;;;;3.55;1.33;;;;;;;;;;5067092;28;42379;-69
2023/09/20 07:30:22;;;;;;;5.00;2.00;;;;;;;;;;5066540;28;41003;-69
2023/09/20 07:32:50;;;;;;;4.28;1.77;;;;;;;;;;5063355;28;41538;-69
2023/09/20 07:35:38;;;;;;;3.15;1.50;;;;;;;;;;5063769;28;43121;-69
2023/09/20 07:38:12;;;;;;;2.95;1.48;;;;;;;;;;5066276;28;41761;-69
2023/09/20 07:40:41;;;;;;;3.70;1.90;;;;;;;;;;5063600;28;41671;-69
2023/09/20 07:43:10;;;;;;;3.08;1.60;;;;;;;;;;5067200;28;42079;-69
2023/09/20 07:45:54;;;;;;;4.22;1.52;;;;;;;;;;5063508;28;40709;-69
2023/09/20 07:48:23;;;;;;;4.30;1.67;;;;;;;;;;5061117;28;43153;-69
2023/09/20 07:50:51;;;;;;;3.40;1.60;;;;;;;;;;5063300;28;40612;-69
2023/09/20 07:53:20;;;;;;;5.07;1.98;;;;;;;;;;5066265;28;42445;-69
2023/09/20 07:55:57;;;;;;;4.47;1.90;;;;;;;;;;5066323;28;42859;-69
2023/09/20 07:58:26;;;;;;;4.53;1.90;;;;;;;;;;5063660;28;41120;-69
2023/09/20 08:00:56;;;;;;;3.60;1.77;;;;;;;;;;5064289;28;41659;-69
2023/09/20 08:03:24;;;;;;;5.63;1.85;;;;;;;;;;5065049;28;43124;-70
2023/09/20 08:05:53;;;;;;;2.78;1.45;;;;;;;;;;5057630;28;39941;-70
2023/09/20 08:08:22;;;;;;;6.43;2.28;;;;;;;;;;5065356;28;40078;-70
2023/09/20 08:10:50;;;;;;;4.10;2.20;;;;;;;;;;5066009;28;40287;-69
2023/09/20 08:13:38;;;;;;;10.30;2.15;;;;;;;;;;5062495;28;40981;-69
2023/09/20 08:16:09;;;;;;;2.50;1.90;;;;;;;;;;5065445;28;42916;-69
2023/09/20 08:21:25;;;;;;;7.18;1.73;;;;;;;;;;5072413;28;39997;-70
2023/09/20 08:59:51;;;;;;;4.70;2.00;;;;;;;;;;5064186;28;42535;-69
2023/09/20 09:02:20;;;;;;;4.70;1.88;;;;;;;;;;5068830;28;41175;-70
2023/09/20 09:04:52;;;;;;;4.10;1.75;;;;;;;;;;5069775;28;41231;-71
2023/09/20 09:07:20;;;;;;;3.22;1.75;;;;;;;;;;5066388;28;42743;-71
2023/09/20 09:09:49;;;;;;;4.65;2.08;;;;;;;;;;5069008;28;40110;-70
2023/09/20 09:12:17;;;;;;;3.83;1.70;;;;;;;;;;5069473;28;42050;-70
2023/09/20 09:14:45;;;;;;;3.85;1.60;;;;;;;;;;5069898;28;42804;-71
2023/09/20 09:17:14;;;;;;;2.92;1.45;;;;;;;;;;5061063;28;41344;-71
2023/09/20 09:19:42;;;;;;;3.92;2.00;;;;;;;;;;5066908;28;41286;-71
2023/09/20 09:22:12;;;;;;;4.15;1.67;;;;;;;;;;5068769;28;39938;-70
2023/09/20 09:24:44;;;;;;;5.47;1.67;;;;;;;;;;5068121;28;42289;-70
2023/09/20 09:27:12;;;;;;;7.70;1.85;;;;;;;;;;5067736;28;42830;-71
2023/09/20 09:29:41;;;;;;;6.40;1.77;;;;;;;;;;5063245;28;40672;-71
2023/09/20 09:32:09;;;;;;;4.82;1.63;;;;;;;;;;5060244;28;41052;-71
2023/09/20 09:34:38;;;;;;;4.25;1.50;;;;;;;;;;5066462;28;41859;-71
2023/09/20 09:37:06;;;;;;;5.80;1.92;;;;;;;;;;5060699;28;41253;-72
2023/09/20 09:39:36;;;;;;;3.50;1.65;;;;;;;;;;5051730;28;41731;-72
2023/09/20 09:42:06;;;;;;;4.32;1.85;;;;;;;;;;5064988;28;33160;-73
2023/09/20 09:44:47;;;;;;;9.30;1.70;;;;;;;;;;5062845;28;41962;-72
2023/09/20 09:47:15;;;;;;;5.18;1.90;;;;;;;;;;5052013;28;42446;-71
2023/09/20 09:49:43;;;;;;;4.47;2.30;;;;;;;;;;5063677;28;41377;-72
2023/09/20 09:52:11;;;;;;;5.40;1.65;;;;;;;;;;5056278;28;42602;-70
2023/09/20 09:54:41;;;;;;;6.07;1.90;;;;;;;;;;5062493;28;41689;-70
2023/09/20 09:57:09;;;;;;;3.30;1.48;;;;;;;;;;5064295;28;41594;-72
2023/09/20 09:59:39;;;;;;;3.45;1.67;;;;;;;;;;5060594;28;42840;-71
2023/09/20 10:02:09;;;;;;;3.33;1.50;;;;;;;;;;5063002;28;42011;-71
2023/09/20 10:04:38;;;;;;;3.95;1.75;;;;;;;;;;5063214;28;41761;-70
2023/09/20 10:07:09;;;;;;;9.10;1.98;;;;;;;;;;5064090;28;41951;-70
2023/09/20 10:09:39;;;;;;;3.58;1.70;;;;;;;;;;5063759;28;40580;-74
2023/09/20 10:12:08;;;;;;;8.48;2.10;;;;;;;;;;5065350;28;41613;-70
2023/09/20 10:14:37;;;;;;;4.22;2.00;;;;;;;;;;5064501;28;44456;-72
2023/09/20 10:17:06;;;;;;;5.72;1.75;;;;;;;;;;5064006;28;40513;-72
2023/09/20 10:19:34;;;;;;;5.60;1.75;;;;;;;;;;5061243;28;42428;-71
2023/09/20 10:22:08;;;;;;;2.58;1.70;;;;;;;;;;5062859;28;42350;-71
2023/09/20 10:24:43;;;;;;;5.53;2.20;;;;;;;;;;5057280;28;40107;-70
2023/09/20 10:27:13;;;;;;;4.63;2.25;;;;;;;;;;5059072;28;42583;-71
2023/09/20 10:29:42;;;;;;;4.03;1.88;;;;;;;;;;5063853;28;40924;-71
2023/09/20 10:32:13;;;;;;;5.47;2.42;;;;;;;;;;5063098;28;41416;-72
2023/09/20 10:34:42;;;;;;;3.80;2.17;;;;;;;;;;5062857;28;41916;-76
2023/09/20 10:37:10;;;;;;;6.30;1.92;;;;;;;;;;5062835;28;40313;-75
2023/09/20 10:39:39;;;;;;;4.45;2.40;;;;;;;;;;5065829;28;41549;-71
2023/09/20 10:42:10;;;;;;;5.35;2.30;;;;;;;;;;5065923;28;43052;-71
2023/09/20 10:44:41;;;;;;;5.05;1.65;;;;;;;;;;5059451;28;40315;-70
2023/09/20 10:47:11;;;;;;;4.07;2.35;;;;;;;;;;5058468;28;40126;-69
2023/09/20 10:49:41;;;;;;;7.55;3.03;;;;;;;;;;5059950;28;39186;-72
2023/09/20 10:52:09;;;;;;;26.05;10.65;;;;;;;;;;5062556;28;42875;-70
2023/09/20 10:54:39;;;;;;;21.05;8.75;;;;;;;;;;5058904;28;42393;-70
2023/09/20 10:57:09;;;;;;;16.63;6.75;;;;;;;;;;5061736;28;40340;-69
2023/09/20 10:59:38;;;;;;;18.50;8.18;;;;;;;;;;5062125;28;41832;-70
2023/09/20 11:02:09;;;;;;;9.57;5.07;;;;;;;;;;5058314;28;42224;-69
2023/09/20 11:04:38;;;;;;;18.25;6.80;;;;;;;;;;5057726;28;41894;-69
2023/09/20 11:07:06;;;;;;;15.18;7.63;;;;;;;;;;5062777;28;39938;-69
2023/09/20 11:09:34;;;;;;;16.17;6.72;;;;;;;;;;5061228;28;43420;-69
2023/09/20 11:12:06;;;;;;;12.77;5.35;;;;;;;;;;5061609;28;42539;-69
2023/09/20 11:14:35;;;;;;;13.35;6.07;;;;;;;;;;5058496;28;42634;-68
2023/09/20 11:17:06;;;;;;;14.75;6.03;;;;;;;;;;5056517;28;41495;-71
2023/09/20 11:19:35;;;;;;;15.43;6.25;;;;;;;;;;5060980;28;42548;-71
2023/09/20 11:22:03;;;;;;;10.20;4.15;;;;;;;;;;5059619;28;41631;-70
2023/09/20 11:24:32;;;;;;;10.32;5.95;;;;;;;;;;5058947;28;39087;-68
2023/09/20 11:27:00;;;;;;;6.50;3.85;;;;;;;;;;5061477;28;41816;-69
2023/09/20 11:29:28;;;;;;;18.52;6.00;;;;;;;;;;5058972;28;41532;-71
2023/09/20 11:31:56;;;;;;;9.05;3.60;;;;;;;;;;5059753;28;40439;-69
2023/09/20 11:34:25;;;;;;;11.95;4.75;;;;;;;;;;5063452;28;41465;-69
2023/09/20 11:36:55;;;;;;;12.98;3.47;;;;;;;;;;5061818;28;41803;-70
2023/09/20 11:39:27;;;;;;;13.07;4.05;;;;;;;;;;5060776;28;41602;-69
2023/09/20 11:41:59;;;;;;;6.50;3.60;;;;;;;;;;5061690;28;43102;-68
2023/09/20 11:44:27;;;;;;;7.20;3.90;;;;;;;;;;5057983;28;41450;-68
2023/09/20 11:46:57;;;;;;;9.82;4.10;;;;;;;;;;5058525;28;41671;-70
2023/09/20 11:49:27;;;;;;;11.52;3.92;;;;;;;;;;5061956;28;41459;-71
2023/09/20 11:51:58;;;;;;;10.68;4.00;;;;;;;;;;5063979;28;41042;-70
2023/09/20 11:54:26;;;;;;;12.70;3.92;;;;;;;;;;5065461;28;42765;-70
2023/09/20 11:56:55;;;;;;;4.40;2.75;;;;;;;;;;5065192;28;39841;-70
2023/09/20 11:59:23;;;;;;;10.38;3.45;;;;;;;;;;5064353;28;42570;-71
2023/09/20 12:01:51;;;;;;;4.32;2.60;;;;;;;;;;5064695;28;42513;-71
2023/09/20 12:04:20;;;;;;;4.88;2.58;;;;;;;;;;5060871;28;40335;-71
2023/09/20 12:06:50;;;;;;;5.45;2.08;;;;;;;;;;5057857;28;41871;-71
2023/09/20 12:09:21;;;;;;;5.82;2.88;;;;;;;;;;5059160;28;41935;-71
2023/09/20 12:11:49;;;;;;;10.57;3.22;;;;;;;;;;5057688;28;40183;-71
2023/09/20 12:14:17;;;;;;;7.35;2.75;;;;;;;;;;5057149;28;42444;-72
2023/09/20 12:16:48;;;;;;;21.95;3.20;;;;;;;;;;5057478;28;40001;-72
2023/09/20 12:19:16;;;;;;;6.07;2.85;;;;;;;;;;5057725;28;42240;-69
2023/09/20 12:21:45;;;;;;;7.03;2.47;;;;;;;;;;5056646;28;42951;-68
2023/09/20 12:24:13;;;;;;;10.73;2.47;;;;;;;;;;5063269;28;41101;-68
2023/09/20 12:26:45;;;;;;;11.23;2.92;;;;;;;;;;5064980;28;42047;-68
2023/09/20 12:29:13;;;;;;;11.27;2.00;;;;;;;;;;5064051;28;43307;-68
2023/09/20 12:31:41;;;;;;;6.55;2.08;;;;;;;;;;5069762;28;40539;-69
2023/09/20 12:34:10;;;;;;;6.22;1.90;;;;;;;;;;5065229;28;41013;-68
2023/09/20 12:36:38;;;;;;;2.75;1.90;;;;;;;;;;5062956;28;42732;-68
2023/09/20 12:39:08;;;;;;;2.38;2.03;;;;;;;;;;5066464;28;41243;-68
2023/09/20 12:41:37;;;;;;;3.28;1.63;;;;;;;;;;5063178;28;42209;-68
2023/09/20 12:44:07;;;;;;;3.35;1.60;;;;;;;;;;5065245;28;40394;-69
2023/09/20 12:46:36;;;;;;;4.45;1.60;;;;;;;;;;5063809;28;41698;-68
2023/09/20 12:49:04;;;;;;;4.22;1.42;;;;;;;;;;5064413;28;43264;-69
2023/09/20 12:51:32;;;;;;;3.22;1.52;;;;;;;;;;5063701;28;41295;-68
2023/09/20 12:54:02;;;;;;;7.50;1.77;;;;;;;;;;5064601;28;41191;-69
2023/09/20 12:56:30;;;;;;;2.05;1.27;;;;;;;;;;5064257;28;41593;-68
2023/09/20 12:58:58;;;;;;;3.25;1.42;;;;;;;;;;5064433;28;40167;-68
2023/09/20 13:01:29;;;;;;;3.83;1.65;;;;;;;;;;5063373;28;41967;-68
2023/09/20 13:03:57;;;;;;;2.65;1.50;;;;;;;;;;5063246;28;41482;-68
2023/09/20 13:06:28;;;;;;;2.80;1.38;;;;;;;;;;5063270;28;41303;-68
2023/09/20 13:08:56;;;;;;;7.28;1.33;;;;;;;;;;5064240;28;41813;-69
2023/09/20 13:11:24;;;;;;;3.33;1.30;;;;;;;;;;5067435;28;41336;-69
2023/09/20 13:13:52;;;;;;;3.42;1.50;;;;;;;;;;5068498;28;42684;-69
2023/09/20 13:16:20;;;;;;;4.28;1.20;;;;;;;;;;5066045;28;41802;-68
2023/09/20 13:18:50;;;;;;;6.00;1.60;;;;;;;;;;5068001;28;39798;-69
2023/09/20 13:21:18;;;;;;;5.13;1.60;;;;;;;;;;5066833;28;41660;-69
2023/09/20 13:23:46;;;;;;;12.43;1.67;;;;;;;;;;5060141;28;41434;-70
2023/09/20 13:26:15;;;;;;;7.80;1.40;;;;;;;;;;5064666;28;43146;-69
2023/09/20 13:28:43;;;;;;;5.95;1.40;;;;;;;;;;5067858;28;42634;-69
2023/09/20 13:31:13;;;;;;;6.10;1.38;;;;;;;;;;5067885;28;40616;-68
2023/09/20 13:33:41;;;;;;;2.25;1.42;;;;;;;;;;5065763;28;42022;-69
2023/09/20 13:36:11;;;;;;;7.93;1.45;;;;;;;;;;5068892;28;42470;-69
2023/09/20 13:38:39;;;;;;;3.97;1.50;;;;;;;;;;5061789;28;40701;-70
2023/09/20 13:41:07;;;;;;;5.63;1.50;;;;;;;;;;5064757;28;41524;-69
2023/09/20 13:43:35;;;;;;;3.88;1.40;;;;;;;;;;5059527;28;42144;-69
2023/09/20 13:46:02;;;;;;;5.60;2.03;;;;;;;;;;5062282;28;41978;-69
2023/09/20 13:48:31;;;;;;;8.52;1.60;;;;;;;;;;5062624;28;41757;-70
2023/09/20 13:50:59;;;;;;;4.50;1.38;;;;;;;;;;5062676;28;40811;-70
2023/09/20 13:53:28;;;;;;;4.43;1.40;;;;;;;;;;5061416;28;42623;-70
2023/09/20 13:56:02;;;;;;;3.33;1.40;;;;;;;;;;5062906;28;42764;-70
2023/09/20 13:58:33;;;;;;;8.13;1.40;;;;;;;;;;5062424;28;39977;-70
2023/09/20 14:01:05;;;;;;;4.60;1.52;;;;;;;;;;5063099;28;42319;-70
2023/09/20 14:03:34;;;;;;;2.00;1.42;;;;;;;;;;5061395;28;41012;-70
2023/09/20 14:06:03;;;;;;;6.40;1.42;;;;;;;;;;5063265;28;42597;-69
2023/09/20 14:08:33;;;;;;;3.75;1.40;;;;;;;;;;5063102;28;43471;-69
2023/09/20 14:11:01;;;;;;;2.30;1.60;;;;;;;;;;5060488;28;40807;-68
2023/09/20 14:13:29;;;;;;;5.05;1.63;;;;;;;;;;5061375;28;42577;-69
2023/09/20 14:15:59;;;;;;;2.70;1.48;;;;;;;;;;5058719;28;42693;-69
2023/09/20 14:18:27;;;;;;;2.72;1.60;;;;;;;;;;5062930;28;39970;-71
2023/09/20 14:20:56;;;;;;;6.65;1.42;;;;;;;;;;5063951;28;41990;-71
2023/09/20 14:23:23;;;;;;;5.32;1.83;;;;;;;;;;5057477;28;41667;-72
2023/09/20 14:25:53;;;;;;;2.17;1.23;;;;;;;;;;5061428;28;40905;-71
2023/09/20 14:28:22;;;;;;;5.80;1.75;;;;;;;;;;5059222;28;41326;-70
2023/09/20 14:30:50;;;;;;;5.22;1.40;;;;;;;;;;5062375;28;41540;-71
2023/09/20 14:33:18;;;;;;;5.60;1.80;;;;;;;;;;5057174;28;42182;-71
2023/09/20 14:35:47;;;;;;;4.10;1.50;;;;;;;;;;5058589;28;41958;-71
2023/09/20 14:38:15;;;;;;;2.97;1.67;;;;;;;;;;5060894;28;41278;-71
2023/09/20 14:40:43;;;;;;;6.28;1.58;;;;;;;;;;5060227;28;41320;-71
2023/09/20 14:43:13;;;;;;;6.90;1.48;;;;;;;;;;5060813;28;41609;-71
2023/09/20 14:45:41;;;;;;;7.80;1.60;;;;;;;;;;5060315;28;39369;-71
2023/09/20 14:48:10;;;;;;;6.03;1.73;;;;;;;;;;5061432;28;41573;-71
2023/09/20 14:50:38;;;;;;;5.95;1.60;;;;;;;;;;5059268;28;39422;-71
2023/09/20 14:53:06;;;;;;;5.78;1.55;;;;;;;;;;5063089;28;42423;-71
2023/09/20 14:55:35;;;;;;;3.38;1.08;;;;;;;;;;5060832;28;42464;-71
2023/09/20 14:58:03;;;;;;;3.72;1.70;;;;;;;;;;5067653;28;41131;-71
2023/09/20 15:00:33;;;;;;;7.43;1.52;;;;;;;;;;5065169;28;42177;-72
2023/09/20 15:03:01;;;;;;;5.43;1.58;;;;;;;;;;5064909;28;42713;-71
2023/09/20 15:05:30;;;;;;;3.17;1.60;;;;;;;;;;5065403;28;41031;-71
2023/09/20 15:07:58;;;;;;;3.70;1.50;;;;;;;;;;5064472;28;42773;-71
2023/09/20 15:10:26;;;;;;;2.60;1.60;;;;;;;;;;5066440;28;42106;-71
2023/09/20 15:12:57;;;;;;;3.00;1.58;;;;;;;;;;5066470;28;41769;-71
2023/09/20 15:15:26;;;;;;;2.42;1.42;;;;;;;;;;5062099;28;41795;-71
2023/09/20 15:17:56;;;;;;;2.13;1.20;;;;;;;;;;5065981;28;41819;-71
2023/09/20 15:20:24;;;;;;;4.30;1.42;;;;;;;;;;5064951;28;41169;-72
2023/09/20 15:22:52;;;;;;;3.15;1.30;;;;;;;;;;5059827;28;42524;-72
2023/09/20 15:25:22;;;;;;;3.78;1.30;;;;;;;;;;5065253;28;40594;-72
2023/09/20 15:27:54;;;;;;;4.25;1.52;;;;;;;;;;5066099;28;42104;-71
2023/09/20 15:30:23;;;;;;;5.13;1.15;;;;;;;;;;5063376;28;41818;-72
2023/09/20 15:32:51;;;;;;;4.68;1.50;;;;;;;;;;5066489;28;40143;-71
2023/09/20 15:35:21;;;;;;;4.15;1.40;;;;;;;;;;5064197;28;42198;-71